createdAt,value
2023-04-12T00:00:31.113Z,61.57
2023-04-12T00:02:59.545Z,61.74
2023-04-12T00:05:27.301Z,61.50
2023-04-12T00:07:55.394Z,60.63
2023-04-12T00:10:23.180Z,61.46
2023-04-12T00:12:50.544Z,61.73
2023-04-12T00:15:17.997Z,62.38
2023-04-12T00:17:46.607Z,62.76
2023-04-12T00:20:16.396Z,63.36
2023-04-12T00:22:43.785Z,62.97
2023-04-12T00:25:11.660Z,63.15
2023-04-12T00:27:39.339Z,62.57
2023-04-12T00:30:08.294Z,62.48
2023-04-12T00:32:36.187Z,62.79
2023-04-12T00:35:03.731Z,62.97
2023-04-12T00:37:31.203Z,62.97
2023-04-12T00:39:58.845Z,65.10
2023-04-12T00:42:26.281Z,63.43
2023-04-12T00:44:53.718Z,64.67
2023-04-12T00:47:21.549Z,64.00
2023-04-12T00:49:49.015Z,63.38
2023-04-12T00:52:18.027Z,63.72
2023-04-12T00:54:45.886Z,63.68
2023-04-12T00:57:13.403Z,63.98
2023-04-12T00:59:40.977Z,64.65
2023-04-12T01:02:09.345Z,64.70
2023-04-12T01:04:38.062Z,63.90
2023-04-12T01:07:22.285Z,63.62
2023-04-12T01:10:26.134Z,63.25
2023-04-12T01:13:33.137Z,64.48
2023-04-12T01:16:06.859Z,63.25
2023-04-12T01:18:40.881Z,64.85
2023-04-12T01:21:15.652Z,65.01
2023-04-12T01:23:58.717Z,63.54
2023-04-12T01:26:41.938Z,63.10
2023-04-12T01:29:10.987Z,65.11
2023-04-12T01:31:52.139Z,64.79
2023-04-12T01:34:20.633Z,65.42
2023-04-12T01:36:49.283Z,65.17
2023-04-12T01:39:17.144Z,64.57
2023-04-12T01:41:48.861Z,64.80
2023-04-12T01:44:17.264Z,65.10
2023-04-12T01:46:48.917Z,64.97
2023-04-12T01:49:17.821Z,65.11
2023-04-12T01:52:23.469Z,65.61
2023-04-12T01:54:51.463Z,65.46
2023-04-12T01:57:19.236Z,64.84
2023-04-12T01:59:49.073Z,65.41
2023-04-12T02:02:16.914Z,65.67
2023-04-12T02:04:44.806Z,64.19
2023-04-12T02:07:13.625Z,64.25
2023-04-12T02:09:41.230Z,64.99
2023-04-12T02:12:09.330Z,65.37
2023-04-12T02:14:37.127Z,64.50
2023-04-12T02:17:05.574Z,64.09
2023-04-12T02:19:33.351Z,64.57
2023-04-12T02:22:02.211Z,63.25
2023-04-12T02:24:29.735Z,63.70
2023-04-12T02:26:59.124Z,62.84
2023-04-12T02:29:27.467Z,63.15
2023-04-12T02:31:55.105Z,63.61
2023-04-12T02:34:23.162Z,63.92
2023-04-12T02:36:51.037Z,63.24
2023-04-12T02:39:18.685Z,64.67
2023-04-12T02:41:46.984Z,65.54
2023-04-12T02:44:15.277Z,65.59
2023-04-12T02:46:43.547Z,64.64
2023-04-12T02:49:11.620Z,64.44
2023-04-12T02:51:39.866Z,65.73
2023-04-12T02:54:07.519Z,65.20
2023-04-12T02:56:36.084Z,64.42
2023-04-12T02:59:04.571Z,64.03
2023-04-12T03:01:33.923Z,64.41
2023-04-12T03:04:02.504Z,64.60
2023-04-12T03:06:32.082Z,64.12
2023-04-12T03:09:00.399Z,62.82
2023-04-12T03:11:28.010Z,62.68
2023-04-12T03:13:56.227Z,62.56
2023-04-12T03:16:29.617Z,62.18
2023-04-12T03:18:57.916Z,61.62
2023-04-12T03:21:26.257Z,62.53
2023-04-12T03:23:54.470Z,62.11
2023-04-12T03:26:22.719Z,62.53
2023-04-12T03:28:51.239Z,62.03
2023-04-12T03:31:21.494Z,62.44
2023-04-12T03:33:50.266Z,61.70
2023-04-12T03:36:18.041Z,61.78
2023-04-12T03:38:47.624Z,61.99
2023-04-12T03:41:15.906Z,61.00
2023-04-12T03:43:43.342Z,61.10
2023-04-12T03:46:11.766Z,60.93
2023-04-12T03:48:39.495Z,61.12
2023-04-12T03:51:11.984Z,60.57
2023-04-12T03:53:40.046Z,60.98
2023-04-12T03:56:08.602Z,60.36
2023-04-12T03:58:36.166Z,59.98
2023-04-12T04:01:06.062Z,61.06
2023-04-12T04:03:37.182Z,59.57
2023-04-12T04:06:05.488Z,60.47
2023-04-12T04:08:33.162Z,59.77
2023-04-12T04:11:01.036Z,60.08
2023-04-12T04:13:29.232Z,59.68
2023-04-12T04:16:02.805Z,59.95
2023-04-12T04:18:31.122Z,59.90
2023-04-12T04:20:58.784Z,59.37
2023-04-12T04:23:29.232Z,58.72
2023-04-12T04:25:57.789Z,59.05
2023-04-12T04:28:25.625Z,59.12
2023-04-12T04:30:55.849Z,59.17
2023-04-12T04:33:24.398Z,58.97
2023-04-12T04:35:52.870Z,58.97
2023-04-12T04:38:20.667Z,58.62
2023-04-12T04:40:53.338Z,58.91
2023-04-12T04:43:22.193Z,60.15
2023-04-12T04:45:54.520Z,60.03
2023-04-12T04:48:22.090Z,60.77
2023-04-12T04:50:51.641Z,60.81
2023-04-12T04:53:22.729Z,60.23
2023-04-12T04:55:57.801Z,60.04
2023-04-12T04:58:26.610Z,60.60
2023-04-12T05:00:57.627Z,60.38
2023-04-12T05:03:30.838Z,60.58
2023-04-12T05:06:00.355Z,61.10
2023-04-12T05:08:28.842Z,60.70
2023-04-12T05:10:57.314Z,61.34
2023-04-12T05:13:25.471Z,61.30
2023-04-12T05:15:52.878Z,60.44
2023-04-12T05:18:20.974Z,59.99
2023-04-12T05:20:48.883Z,59.27
2023-04-12T05:23:16.387Z,59.40
2023-04-12T05:25:46.920Z,58.05
2023-04-12T05:28:16.755Z,59.26
2023-04-12T05:30:45.155Z,59.74
2023-04-12T05:33:12.887Z,59.82
2023-04-12T05:35:43.146Z,59.08
2023-04-12T05:38:11.787Z,58.38
2023-04-12T05:40:39.528Z,58.31
2023-04-12T05:43:08.595Z,57.44
2023-04-12T05:45:36.284Z,57.17
2023-04-12T05:48:03.976Z,57.60
2023-04-12T05:50:31.907Z,58.72
2023-04-12T05:53:01.678Z,58.18
2023-04-12T05:55:30.025Z,58.45
2023-04-12T05:57:58.703Z,57.79
2023-04-12T06:00:26.702Z,57.58
2023-04-12T06:02:54.989Z,56.96
2023-04-12T06:05:22.845Z,56.60
2023-04-12T06:07:50.612Z,56.19
2023-04-12T06:10:19.254Z,56.75
2023-04-12T06:12:47.729Z,56.25
2023-04-12T06:15:15.560Z,57.33
2023-04-12T06:17:43.671Z,56.48
2023-04-12T06:20:12.352Z,56.48
2023-04-12T06:22:40.049Z,56.71
2023-04-12T06:25:08.364Z,55.81
2023-04-12T06:27:36.054Z,56.67
2023-04-12T06:30:03.780Z,55.71
2023-04-12T06:32:32.383Z,55.17
2023-04-12T06:35:00.540Z,55.30
2023-04-12T06:37:28.046Z,55.34
2023-04-12T06:39:55.723Z,54.81
2023-04-12T06:42:23.126Z,54.15
2023-04-12T06:44:50.528Z,53.80
2023-04-12T06:47:18.182Z,54.95
2023-04-12T06:49:45.590Z,54.33
2023-04-12T06:52:12.962Z,54.59
2023-04-12T06:54:40.710Z,54.35
2023-04-12T06:57:11.489Z,54.29
2023-04-12T06:59:39.301Z,53.52
2023-04-12T07:02:07.869Z,53.20
2023-04-12T07:04:35.376Z,52.68
2023-04-12T07:07:02.807Z,53.03
2023-04-12T07:09:33.479Z,53.80
2023-04-12T07:12:02.417Z,53.18
2023-04-12T07:14:30.126Z,52.54
2023-04-12T07:16:57.604Z,52.00
2023-04-12T07:19:25.010Z,50.85
2023-04-12T07:21:52.727Z,50.38
2023-04-12T07:24:20.114Z,50.82
2023-04-12T07:26:47.517Z,51.54
2023-04-12T07:29:15.856Z,51.38
2023-04-12T07:31:43.283Z,51.04
2023-04-12T07:34:10.847Z,51.21
2023-04-12T07:36:38.779Z,50.72
2023-04-12T07:39:06.198Z,50.16
2023-04-12T07:41:33.679Z,49.92
2023-04-12T07:44:01.422Z,50.42
2023-04-12T07:46:28.933Z,49.29
2023-04-12T07:48:56.617Z,49.70
2023-04-12T07:51:25.061Z,49.34
2023-04-12T07:53:52.560Z,48.54
2023-04-12T07:56:19.933Z,48.85
2023-04-12T07:58:48.218Z,47.80
2023-04-12T08:01:16.022Z,45.19
2023-04-12T08:03:43.909Z,46.26
2023-04-12T08:06:11.824Z,46.27
2023-04-12T08:08:39.244Z,46.16
2023-04-12T08:11:07.376Z,45.53
2023-04-12T08:13:35.527Z,45.40
2023-04-12T08:16:03.235Z,43.92
2023-04-12T08:18:31.273Z,44.08
2023-04-12T08:20:58.683Z,43.28
2023-04-12T08:23:26.155Z,43.52
2023-04-12T08:26:03.296Z,43.32
2023-04-12T08:28:31.229Z,43.57
2023-04-12T08:30:59.585Z,42.45
2023-04-12T08:33:27.511Z,40.91
2023-04-12T08:35:55.232Z,41.57
2023-04-12T08:38:28.012Z,41.84
2023-04-12T08:41:05.981Z,41.12
2023-04-12T08:43:34.580Z,40.68
2023-04-12T08:46:02.202Z,39.87
2023-04-12T08:48:29.748Z,39.47
2023-04-12T08:51:00.312Z,38.25
2023-04-12T08:53:27.724Z,39.29
2023-04-12T08:55:55.156Z,39.27
2023-04-12T08:58:23.599Z,39.72
2023-04-12T09:00:51.806Z,39.13
2023-04-12T09:03:19.374Z,40.33
2023-04-12T09:05:47.185Z,40.81
2023-04-12T09:08:14.705Z,39.08
2023-04-12T09:10:42.739Z,37.39
2023-04-12T09:13:10.625Z,36.57
2023-04-12T09:15:48.769Z,37.79
2023-04-12T09:18:17.467Z,37.37
2023-04-12T09:20:45.031Z,35.88
2023-04-12T09:23:24.116Z,35.56
2023-04-12T09:25:53.460Z,35.76
2023-04-12T09:28:26.920Z,34.84
2023-04-12T09:30:56.198Z,34.36
2023-04-12T09:33:33.640Z,35.36
2023-04-12T09:36:02.831Z,35.06
2023-04-12T09:38:31.104Z,35.57
2023-04-12T09:41:17.005Z,34.17
2023-04-12T09:43:46.085Z,35.87
2023-04-12T09:46:14.263Z,38.53
2023-04-12T09:48:43.514Z,33.19
2023-04-12T09:51:12.048Z,33.81
2023-04-12T09:53:41.505Z,32.81
2023-04-12T09:56:09.516Z,33.58
2023-04-12T09:58:38.835Z,32.18
2023-04-12T10:01:09.459Z,33.12
2023-04-12T10:03:38.847Z,33.31
2023-04-12T10:06:06.910Z,31.73
2023-04-12T10:08:34.485Z,32.33
2023-04-12T10:11:02.732Z,35.16
2023-04-12T10:13:32.834Z,32.77
2023-04-12T10:16:00.898Z,30.92
2023-04-12T10:18:28.954Z,31.91
2023-04-12T10:20:57.980Z,31.65
2023-04-12T10:23:26.120Z,30.87
2023-04-12T10:25:57.033Z,30.62
2023-04-12T10:28:25.355Z,31.49
2023-04-12T10:30:57.356Z,30.81
2023-04-12T10:33:27.373Z,31.12
2023-04-12T10:36:00.839Z,31.68
2023-04-12T10:38:34.590Z,30.64
2023-04-12T10:41:18.199Z,30.51
2023-04-12T10:43:46.421Z,30.68
2023-04-12T10:46:39.261Z,29.65
2023-04-12T10:49:09.613Z,30.92
2023-04-12T10:51:37.603Z,30.92
2023-04-12T10:54:08.399Z,30.72
2023-04-12T10:56:40.711Z,28.48
2023-04-12T10:59:08.643Z,29.16
2023-04-12T11:01:39.604Z,29.13
2023-04-12T11:04:07.413Z,27.65
2023-04-12T11:06:49.479Z,28.76
2023-04-12T11:09:29.541Z,28.70
2023-04-12T11:11:58.022Z,28.01
2023-04-12T11:14:31.209Z,28.77
2023-04-12T11:17:17.142Z,27.66
2023-04-12T11:19:52.243Z,29.37
2023-04-12T11:22:21.662Z,29.26
2023-04-12T11:24:51.313Z,28.42
2023-04-12T11:27:20.539Z,28.81
2023-04-12T11:29:49.718Z,27.25
2023-04-12T11:32:17.612Z,28.04
2023-04-12T11:34:47.238Z,27.07
2023-04-12T11:37:15.162Z,27.59
2023-04-12T11:39:43.813Z,28.25
2023-04-12T11:42:16.077Z,29.06
2023-04-12T11:44:56.429Z,25.56
2023-04-12T11:47:26.017Z,26.70
2023-04-12T11:49:58.345Z,25.90
2023-04-12T11:52:30.313Z,26.42
2023-04-12T11:55:01.319Z,27.93
2023-04-12T11:57:29.290Z,28.72
2023-04-12T11:59:59.150Z,29.28
2023-04-12T12:02:30.241Z,28.50
2023-04-12T12:04:59.932Z,29.51
2023-04-12T12:07:27.875Z,25.98
2023-04-12T12:09:55.794Z,27.74
2023-04-12T12:12:24.125Z,27.45
2023-04-12T12:14:51.758Z,27.55
2023-04-12T12:17:19.464Z,26.13
2023-04-12T12:19:47.198Z,27.22
2023-04-12T12:22:19.304Z,26.91
2023-04-12T12:24:49.981Z,26.92
2023-04-12T12:27:37.860Z,26.15
2023-04-12T12:30:10.121Z,26.45
2023-04-12T12:32:39.413Z,27.17
2023-04-12T12:35:13.944Z,26.44
2023-04-12T12:37:53.251Z,27.39
2023-04-12T12:40:30.448Z,27.30
2023-04-12T12:42:58.195Z,27.93
2023-04-12T12:45:27.573Z,26.86
2023-04-12T12:47:56.044Z,26.41
2023-04-12T12:50:25.298Z,26.20
2023-04-12T12:52:53.715Z,26.46
2023-04-12T12:55:22.982Z,26.25
2023-04-12T12:58:07.449Z,26.69
2023-04-12T13:00:36.603Z,26.27
2023-04-12T13:03:04.770Z,26.66
2023-04-12T13:05:32.595Z,27.35
2023-04-12T13:08:00.402Z,27.25
2023-04-12T13:10:27.875Z,25.83
2023-04-12T13:12:55.278Z,26.47
2023-04-12T13:15:24.542Z,26.91
2023-04-12T13:17:53.084Z,26.27
2023-04-12T13:20:23.832Z,26.09
2023-04-12T13:22:54.321Z,26.49
2023-04-12T13:25:21.848Z,26.23
2023-04-12T13:27:49.598Z,25.99
2023-04-12T13:30:20.463Z,26.07
2023-04-12T13:32:47.914Z,25.60
2023-04-12T13:35:15.453Z,26.24
2023-04-12T13:37:43.178Z,26.04
2023-04-12T13:40:10.962Z,25.71
2023-04-12T13:42:38.653Z,24.90
2023-04-12T13:45:07.621Z,24.64
2023-04-12T13:47:35.410Z,24.92
2023-04-12T13:50:02.908Z,24.32
2023-04-12T13:52:30.930Z,25.70
2023-04-12T13:54:59.618Z,25.95
2023-04-12T13:57:27.084Z,25.88
2023-04-12T13:59:54.788Z,25.63
2023-04-12T14:02:22.477Z,25.30
2023-04-12T14:04:52.629Z,24.29
2023-04-12T14:07:20.119Z,24.89
2023-04-12T14:09:48.605Z,25.79
2023-04-12T14:12:16.540Z,24.93
2023-04-12T14:14:44.159Z,25.81
2023-04-12T14:17:11.821Z,24.75
2023-04-12T14:19:39.820Z,25.21
2023-04-12T14:22:07.178Z,25.72
2023-04-12T14:24:34.573Z,25.14
2023-04-12T14:27:02.475Z,24.28
2023-04-12T14:29:29.937Z,23.86
2023-04-12T14:31:57.379Z,24.24
2023-04-12T14:34:25.130Z,24.58
2023-04-12T14:36:52.467Z,23.03
2023-04-12T14:39:20.110Z,23.90
2023-04-12T14:41:47.800Z,23.54
2023-04-12T14:44:15.642Z,23.80
2023-04-12T14:46:44.150Z,24.08
2023-04-12T14:49:11.915Z,23.35
2023-04-12T14:51:39.318Z,23.11
2023-04-12T14:54:06.722Z,23.28
2023-04-12T14:56:42.242Z,23.57
2023-04-12T14:59:13.397Z,23.51
2023-04-12T15:01:41.714Z,23.79
2023-04-12T15:04:09.664Z,22.81
2023-04-12T15:06:42.357Z,23.16
2023-04-12T15:09:10.305Z,22.36
2023-04-12T15:11:38.239Z,23.11
2023-04-12T15:14:09.151Z,23.32
2023-04-12T15:16:38.196Z,23.00
2023-04-12T15:19:13.105Z,23.32
2023-04-12T15:21:44.178Z,23.00
2023-04-12T15:24:11.630Z,22.14
2023-04-12T15:26:39.004Z,22.58
2023-04-12T15:29:08.480Z,21.99
2023-04-12T15:31:35.917Z,21.67
2023-04-12T15:34:03.375Z,21.63
2023-04-12T15:36:36.404Z,21.51
2023-04-12T15:39:04.931Z,21.84
2023-04-12T15:41:38.887Z,21.19
2023-04-12T15:44:07.751Z,20.84
2023-04-12T15:46:36.289Z,21.02
2023-04-12T15:49:04.184Z,21.03
2023-04-12T15:51:32.400Z,20.60
2023-04-12T15:54:00.551Z,21.32
2023-04-12T15:56:29.685Z,21.61
2023-04-12T15:58:57.982Z,21.81
2023-04-12T16:01:25.906Z,22.41
2023-04-12T16:03:54.015Z,22.53
2023-04-12T16:06:21.699Z,22.10
2023-04-12T16:08:51.525Z,21.99
2023-04-12T16:11:21.275Z,21.87
2023-04-12T16:13:49.762Z,21.95
2023-04-12T16:16:18.573Z,22.53
2023-04-12T16:18:46.811Z,22.14
2023-04-12T16:21:19.620Z,22.30
2023-04-12T16:23:48.384Z,22.32
2023-04-12T16:26:21.689Z,22.19
2023-04-12T16:28:52.854Z,22.20
2023-04-12T16:31:21.199Z,22.24
2023-04-12T16:33:49.677Z,21.94
2023-04-12T16:36:17.981Z,23.07
2023-04-12T16:38:45.796Z,22.64
2023-04-12T16:41:13.373Z,22.74
2023-04-12T16:43:42.703Z,22.53
2023-04-12T16:46:12.552Z,22.56
2023-04-12T16:48:41.270Z,22.55
2023-04-12T16:51:09.094Z,23.20
2023-04-12T16:53:36.661Z,23.33
2023-04-12T16:56:04.681Z,23.45
2023-04-12T16:58:33.346Z,23.54
2023-04-12T17:01:01.860Z,23.89
2023-04-12T17:03:30.218Z,23.96
2023-04-12T17:05:58.187Z,24.15
2023-04-12T17:08:25.898Z,24.31
2023-04-12T17:10:54.395Z,24.57
2023-04-12T17:13:22.088Z,24.96
2023-04-12T17:15:49.597Z,25.17
2023-04-12T17:18:17.069Z,25.64
2023-04-12T17:20:45.338Z,25.78
2023-04-12T17:23:13.536Z,26.07
2023-04-12T17:25:41.888Z,28.21
2023-04-12T17:28:09.677Z,27.45
2023-04-12T17:30:37.148Z,29.70
2023-04-12T17:33:05.062Z,28.76
2023-04-12T17:35:32.789Z,32.91
2023-04-12T17:38:00.232Z,30.13
2023-04-12T17:40:27.594Z,29.63
2023-04-12T17:42:55.320Z,29.70
2023-04-12T17:45:25.794Z,30.00
2023-04-12T17:47:54.660Z,30.35
2023-04-12T17:50:22.537Z,30.57
2023-04-12T17:52:50.425Z,30.99
2023-04-12T17:55:23.165Z,31.72
2023-04-12T17:57:51.075Z,32.39
2023-04-12T18:00:20.207Z,32.31
2023-04-12T18:02:47.776Z,32.54
2023-04-12T18:05:15.598Z,32.98
2023-04-12T18:07:43.150Z,33.09
2023-04-12T18:10:13.059Z,33.31
2023-04-12T18:12:41.184Z,33.57
2023-04-12T18:15:09.227Z,37.29
2023-04-12T18:17:36.901Z,34.59
2023-04-12T18:20:09.762Z,34.53
2023-04-12T18:22:38.001Z,34.48
2023-04-12T18:25:07.578Z,35.78
2023-04-12T18:27:35.195Z,35.37
2023-04-12T18:30:03.488Z,35.56
2023-04-12T18:32:31.524Z,35.94
2023-04-12T18:34:59.010Z,36.27
2023-04-12T18:37:27.120Z,36.15
2023-04-12T18:39:55.422Z,35.81
2023-04-12T18:42:22.982Z,35.97
2023-04-12T18:44:51.224Z,36.08
2023-04-12T18:47:18.988Z,36.48
2023-04-12T18:49:46.403Z,36.24
2023-04-12T18:52:13.847Z,36.74
2023-04-12T18:54:41.709Z,37.17
2023-04-12T18:57:09.212Z,37.34
2023-04-12T18:59:36.703Z,36.90
2023-04-12T19:02:04.549Z,37.31
2023-04-12T19:04:32.224Z,37.14
2023-04-12T19:06:59.601Z,36.89
2023-04-12T19:09:27.335Z,36.78
2023-04-12T19:11:56.287Z,37.08
2023-04-12T19:14:25.223Z,37.04
2023-04-12T19:16:53.072Z,37.38
2023-04-12T19:19:20.834Z,37.40
2023-04-12T19:21:48.243Z,37.30
2023-04-12T19:24:16.207Z,37.33
2023-04-12T19:26:47.073Z,37.39
2023-04-12T19:29:19.589Z,37.14
2023-04-12T19:31:47.662Z,37.27
2023-04-12T19:34:18.201Z,37.05
2023-04-12T19:36:45.804Z,37.16
2023-04-12T19:39:13.595Z,36.96
2023-04-12T19:41:41.091Z,36.65
2023-04-12T19:44:08.692Z,36.80
2023-04-12T19:46:38.786Z,36.51
2023-04-12T19:49:06.714Z,36.50
2023-04-12T19:51:34.669Z,36.63
2023-04-12T19:54:02.889Z,36.90
2023-04-12T19:56:31.378Z,37.21
2023-04-12T19:58:59.940Z,37.75
2023-04-12T20:01:27.962Z,37.49
2023-04-12T20:03:55.691Z,37.44
2023-04-12T20:06:23.229Z,37.49
2023-04-12T20:08:51.209Z,37.75
2023-04-12T20:11:18.907Z,37.81
2023-04-12T20:13:46.619Z,38.24
2023-04-12T20:16:14.136Z,38.41
2023-04-12T20:18:42.086Z,38.21
2023-04-12T20:21:10.250Z,38.34
2023-04-12T20:23:37.980Z,38.55
2023-04-12T20:26:05.680Z,38.59
2023-04-12T20:28:33.118Z,38.63
2023-04-12T20:31:00.767Z,38.60
2023-04-12T20:33:29.303Z,38.73
2023-04-12T20:35:56.665Z,39.27
2023-04-12T20:38:24.204Z,39.57
2023-04-12T20:40:52.334Z,39.48
2023-04-12T20:43:20.323Z,39.12
2023-04-12T20:45:48.780Z,39.23
2023-04-12T20:48:18.348Z,39.20
2023-04-12T20:50:46.596Z,39.52
2023-04-12T20:53:15.773Z,39.42
2023-04-12T20:55:46.488Z,39.38
2023-04-12T20:58:14.464Z,39.68
2023-04-12T21:00:41.913Z,40.35
2023-04-12T21:03:10.880Z,40.65
2023-04-12T21:05:38.706Z,40.83
2023-04-12T21:08:07.568Z,41.12
2023-04-12T21:10:35.308Z,41.33
2023-04-12T21:13:03.023Z,40.48
2023-04-12T21:15:31.834Z,40.58
2023-04-12T21:17:59.594Z,40.25
2023-04-12T21:20:27.363Z,39.99
2023-04-12T21:22:54.827Z,40.42
2023-04-12T21:25:22.851Z,40.53
2023-04-12T21:27:50.429Z,40.44
2023-04-12T21:30:17.808Z,40.79
2023-04-12T21:32:45.559Z,41.09
2023-04-12T21:35:13.635Z,41.04
2023-04-12T21:37:41.002Z,41.25
2023-04-12T21:40:12.659Z,41.48
2023-04-12T21:42:40.768Z,42.05
2023-04-12T21:45:09.483Z,42.37
2023-04-12T21:47:39.464Z,42.55
2023-04-12T21:50:08.503Z,42.71
2023-04-12T21:52:37.009Z,42.55
2023-04-12T21:55:05.738Z,42.82
2023-04-12T21:57:34.191Z,43.01
2023-04-12T22:00:05.701Z,42.73
2023-04-12T22:02:39.577Z,43.19
2023-04-12T22:05:07.676Z,43.47
2023-04-12T22:07:35.291Z,43.34
2023-04-12T22:10:02.924Z,43.65
2023-04-12T22:12:33.758Z,43.57
2023-04-12T22:15:01.116Z,43.79
2023-04-12T22:17:29.947Z,43.63
2023-04-12T22:19:58.165Z,43.52
2023-04-12T22:22:29.116Z,43.90
2023-04-12T22:24:56.516Z,43.65
2023-04-12T22:27:26.472Z,44.22
2023-04-12T22:29:54.064Z,44.21
2023-04-12T22:32:21.949Z,44.24
2023-04-12T22:34:57.832Z,44.39
2023-04-12T22:37:32.993Z,43.63
2023-04-12T22:40:06.437Z,44.14
2023-04-12T22:42:33.804Z,44.23
2023-04-12T22:45:02.462Z,44.66
2023-04-12T22:47:30.377Z,44.91
2023-04-12T22:50:01.434Z,45.28
2023-04-12T22:52:32.040Z,45.50
2023-04-12T22:54:59.450Z,45.50
2023-04-12T22:57:27.413Z,45.59
2023-04-12T22:59:55.113Z,45.23
2023-04-12T23:02:22.582Z,45.52
2023-04-12T23:04:51.558Z,45.48
2023-04-12T23:07:19.287Z,45.34
2023-04-12T23:09:46.642Z,45.02
2023-04-12T23:12:14.400Z,44.87
2023-04-12T23:14:42.067Z,45.03
2023-04-12T23:17:09.452Z,44.58
2023-04-12T23:19:36.891Z,44.52
2023-04-12T23:22:05.106Z,44.50
2023-04-12T23:24:32.502Z,44.62
2023-04-12T23:27:00.345Z,44.69
2023-04-12T23:29:28.044Z,45.25
2023-04-12T23:31:55.586Z,44.74
2023-04-12T23:34:23.059Z,45.11
2023-04-12T23:36:50.743Z,45.69
2023-04-12T23:39:18.292Z,46.02
2023-04-12T23:41:46.593Z,45.96
2023-04-12T23:44:14.293Z,45.12
2023-04-12T23:46:41.757Z,45.58
2023-04-12T23:49:09.194Z,45.54
2023-04-12T23:51:37.069Z,45.65
2023-04-12T23:54:04.492Z,45.88
2023-04-12T23:56:32.061Z,45.91
2023-04-12T23:58:59.861Z,46.20
